createdAt,value
2023-08-07T00:02:01.999Z,15.80
2023-08-07T00:04:29.413Z,15.85
2023-08-07T00:06:56.247Z,15.88
2023-08-07T00:09:23.224Z,15.89
2023-08-07T00:11:50.366Z,15.95
2023-08-07T00:14:17.336Z,15.99
2023-08-07T00:16:44.182Z,16.02
2023-08-07T00:19:10.854Z,16.04
2023-08-07T00:21:38.978Z,16.03
2023-08-07T00:24:05.991Z,16.01
2023-08-07T00:26:33.477Z,15.99
2023-08-07T00:29:00.169Z,15.95
2023-08-07T00:31:27.126Z,15.92
2023-08-07T00:33:55.503Z,15.89
2023-08-07T00:36:22.314Z,15.86
2023-08-07T00:38:48.931Z,15.86
2023-08-07T00:41:20.417Z,15.83
2023-08-07T00:43:47.091Z,15.81
2023-08-07T00:46:13.602Z,15.79
2023-08-07T00:48:40.449Z,15.76
2023-08-07T00:51:09.076Z,15.74
2023-08-07T00:53:39.582Z,15.70
2023-08-07T00:56:06.768Z,15.68
2023-08-07T00:58:34.457Z,15.63
2023-08-07T01:01:01.338Z,15.61
2023-08-07T01:03:28.056Z,15.59
2023-08-07T01:05:55.281Z,15.59
2023-08-07T01:08:22.301Z,15.58
2023-08-07T01:11:09.705Z,15.58
2023-08-07T01:13:45.484Z,15.57
2023-08-07T01:16:20.778Z,15.56
2023-08-07T01:18:48.319Z,15.54
2023-08-07T01:21:21.289Z,15.51
2023-08-07T01:23:49.156Z,15.45
2023-08-07T01:26:20.906Z,15.39
2023-08-07T01:28:58.886Z,15.32
2023-08-07T01:31:27.041Z,15.25
2023-08-07T01:34:05.639Z,15.22
2023-08-07T01:36:33.444Z,15.21
2023-08-07T01:39:02.096Z,15.21
2023-08-07T01:41:29.529Z,15.20
2023-08-07T01:43:56.330Z,15.19
2023-08-07T01:46:23.001Z,15.18
2023-08-07T01:48:50.240Z,15.17
2023-08-07T01:51:17.209Z,15.15
2023-08-07T01:53:43.903Z,15.14
2023-08-07T01:56:10.446Z,15.12
2023-08-07T01:58:37.299Z,15.09
2023-08-07T02:01:04.397Z,15.07
2023-08-07T02:03:31.349Z,15.03
2023-08-07T02:05:58.398Z,15.01
2023-08-07T02:08:25.302Z,14.98
2023-08-07T02:10:52.368Z,14.95
2023-08-07T02:13:19.475Z,14.95
2023-08-07T02:15:46.184Z,14.93
2023-08-07T02:18:13.260Z,14.92
2023-08-07T02:20:39.936Z,14.92
2023-08-07T02:23:06.810Z,14.94
2023-08-07T02:25:33.417Z,14.94
2023-08-07T02:28:00.053Z,14.94
2023-08-07T02:30:26.764Z,14.90
2023-08-07T02:32:53.591Z,14.89
2023-08-07T02:35:20.199Z,14.87
2023-08-07T02:37:47.108Z,14.83
2023-08-07T02:40:16.375Z,14.81
2023-08-07T02:42:43.608Z,14.80
2023-08-07T02:45:10.360Z,14.78
2023-08-07T02:47:37.177Z,14.75
2023-08-07T02:50:03.984Z,14.71
2023-08-07T02:52:31.009Z,14.71
2023-08-07T02:54:57.981Z,14.69
2023-08-07T02:57:25.982Z,14.69
2023-08-07T02:59:53.085Z,14.67
2023-08-07T03:02:19.907Z,14.67
2023-08-07T03:04:46.705Z,14.64
2023-08-07T03:07:13.244Z,14.64
2023-08-07T03:09:39.907Z,14.66
2023-08-07T03:12:06.852Z,14.67
2023-08-07T03:14:33.783Z,14.67
2023-08-07T03:17:00.758Z,14.71
2023-08-07T03:19:27.782Z,14.75
2023-08-07T03:21:54.291Z,14.79
2023-08-07T03:24:21.263Z,14.81
2023-08-07T03:26:48.510Z,14.83
2023-08-07T03:29:15.483Z,14.85
2023-08-07T03:31:42.113Z,14.84
2023-08-07T03:34:08.875Z,14.86
2023-08-07T03:36:36.347Z,14.87
2023-08-07T03:39:04.230Z,14.90
2023-08-07T03:41:30.837Z,14.90
2023-08-07T03:43:57.793Z,14.89
2023-08-07T03:46:24.604Z,14.91
2023-08-07T03:48:51.492Z,14.89
2023-08-07T03:51:18.462Z,14.91
2023-08-07T03:53:45.585Z,14.91
2023-08-07T03:56:12.322Z,14.93
2023-08-07T03:58:39.119Z,14.96
2023-08-07T04:01:06.049Z,14.97
2023-08-07T04:03:32.951Z,14.98
2023-08-07T04:06:03.048Z,14.97
2023-08-07T04:08:29.987Z,14.97
2023-08-07T04:11:04.196Z,15.00
2023-08-07T04:13:31.811Z,15.01
2023-08-07T04:15:59.098Z,15.03
2023-08-07T04:18:25.788Z,15.05
2023-08-07T04:20:56.495Z,15.07
2023-08-07T04:23:23.936Z,15.09
2023-08-07T04:25:54.360Z,15.07
2023-08-07T04:28:21.481Z,15.08
2023-08-07T04:30:54.645Z,15.11
2023-08-07T04:33:21.889Z,15.12
2023-08-07T04:35:48.574Z,15.15
2023-08-07T04:38:16.786Z,15.14
2023-08-07T04:40:50.380Z,15.14
2023-08-07T04:43:19.253Z,15.16
2023-08-07T04:45:46.749Z,15.17
2023-08-07T04:48:14.726Z,15.19
2023-08-07T04:50:42.519Z,15.21
2023-08-07T04:53:09.546Z,15.23
2023-08-07T04:55:36.864Z,15.25
2023-08-07T04:58:03.946Z,15.25
2023-08-07T05:00:30.680Z,15.26
2023-08-07T05:02:57.776Z,15.27
2023-08-07T05:05:25.153Z,15.27
2023-08-07T05:07:52.435Z,15.30
2023-08-07T05:10:19.531Z,15.31
2023-08-07T05:12:46.355Z,15.31
2023-08-07T05:15:13.057Z,15.33
2023-08-07T05:17:39.736Z,15.36
2023-08-07T05:20:07.355Z,15.40
2023-08-07T05:22:34.207Z,15.45
2023-08-07T05:25:01.039Z,15.50
2023-08-07T05:27:27.707Z,15.53
2023-08-07T05:29:54.632Z,15.51
2023-08-07T05:32:21.236Z,15.50
2023-08-07T05:34:48.197Z,15.47
2023-08-07T05:37:15.028Z,15.46
2023-08-07T05:39:42.037Z,15.46
2023-08-07T05:42:10.658Z,15.44
2023-08-07T05:44:37.536Z,15.45
2023-08-07T05:47:04.544Z,15.51
2023-08-07T05:49:31.272Z,15.55
2023-08-07T05:51:58.253Z,15.61
2023-08-07T05:54:25.674Z,15.60
2023-08-07T05:56:52.549Z,15.64
2023-08-07T05:59:19.326Z,15.67
2023-08-07T06:01:45.948Z,15.70
2023-08-07T06:04:12.688Z,15.72
2023-08-07T06:06:40.922Z,15.71
2023-08-07T06:09:07.967Z,15.70
2023-08-07T06:11:34.844Z,15.69
2023-08-07T06:14:02.213Z,15.69
2023-08-07T06:16:29.227Z,15.75
2023-08-07T06:18:55.894Z,15.77
2023-08-07T06:21:22.493Z,15.78
2023-08-07T06:23:49.464Z,15.78
2023-08-07T06:26:16.254Z,15.81
2023-08-07T06:28:43.847Z,15.86
2023-08-07T06:31:12.413Z,15.89
2023-08-07T06:33:38.985Z,15.91
2023-08-07T06:36:06.198Z,15.93
2023-08-07T06:38:33.296Z,15.92
2023-08-07T06:41:00.034Z,15.95
2023-08-07T06:43:27.051Z,15.99
2023-08-07T06:45:55.781Z,16.05
2023-08-07T06:48:23.158Z,16.13
2023-08-07T06:50:52.709Z,16.23
2023-08-07T06:53:20.301Z,16.35
2023-08-07T06:55:47.579Z,16.39
2023-08-07T06:58:14.602Z,16.46
2023-08-07T07:00:41.975Z,16.61
2023-08-07T07:03:10.984Z,16.73
2023-08-07T07:05:37.795Z,16.82
2023-08-07T07:08:04.557Z,16.79
2023-08-07T07:10:31.438Z,16.72
2023-08-07T07:12:58.358Z,16.75
2023-08-07T07:15:25.122Z,16.73
2023-08-07T07:17:52.036Z,16.82
2023-08-07T07:20:19.995Z,16.94
2023-08-07T07:22:47.518Z,17.06
2023-08-07T07:25:14.329Z,17.19
2023-08-07T07:27:41.509Z,17.31
2023-08-07T07:30:09.037Z,17.39
2023-08-07T07:32:36.213Z,17.50
2023-08-07T07:35:02.917Z,17.63
2023-08-07T07:37:31.456Z,17.75
2023-08-07T07:39:58.112Z,17.83
2023-08-07T07:42:24.773Z,17.81
2023-08-07T07:44:51.261Z,17.80
2023-08-07T07:47:18.288Z,17.84
2023-08-07T07:49:48.813Z,17.88
2023-08-07T07:52:15.922Z,17.99
2023-08-07T07:54:43.039Z,18.04
2023-08-07T07:57:09.871Z,18.05
2023-08-07T07:59:36.792Z,18.07
2023-08-07T08:02:03.694Z,18.13
2023-08-07T08:04:30.600Z,18.36
2023-08-07T08:06:57.364Z,18.52
2023-08-07T08:09:24.249Z,18.68
2023-08-07T08:11:50.886Z,18.82
2023-08-07T08:14:18.044Z,18.90
2023-08-07T08:16:44.740Z,18.86
2023-08-07T08:19:12.270Z,18.84
2023-08-07T08:21:40.089Z,18.80
2023-08-07T08:24:08.534Z,18.76
2023-08-07T08:26:35.762Z,18.71
2023-08-07T08:29:02.485Z,18.72
2023-08-07T08:31:29.538Z,18.63
2023-08-07T08:33:56.722Z,18.47
2023-08-07T08:36:23.521Z,18.37
2023-08-07T08:38:50.327Z,18.22
2023-08-07T08:41:27.100Z,18.12
2023-08-07T08:43:55.784Z,17.98
2023-08-07T08:46:25.687Z,17.92
2023-08-07T08:48:57.622Z,17.97
2023-08-07T08:51:25.644Z,17.99
2023-08-07T08:53:57.774Z,18.05
2023-08-07T08:56:25.425Z,18.30
2023-08-07T08:58:52.705Z,18.55
2023-08-07T09:01:20.294Z,18.70
2023-08-07T09:03:47.545Z,18.71
2023-08-07T09:06:15.724Z,18.37
2023-08-07T09:08:44.511Z,17.75
2023-08-07T09:11:15.564Z,16.70
2023-08-07T09:13:44.370Z,15.90
2023-08-07T09:16:13.464Z,15.53
2023-08-07T09:18:41.238Z,15.35
2023-08-07T09:21:08.480Z,15.22
2023-08-07T09:23:34.974Z,15.05
2023-08-07T09:26:03.810Z,15.02
2023-08-07T09:28:31.263Z,15.09
2023-08-07T09:30:58.032Z,15.21
2023-08-07T09:33:28.596Z,15.33
2023-08-07T09:36:04.378Z,15.49
2023-08-07T09:38:35.393Z,15.57
2023-08-07T09:41:04.516Z,15.65
2023-08-07T09:43:36.397Z,15.76
2023-08-07T09:46:09.355Z,15.92
2023-08-07T09:48:44.159Z,16.11
2023-08-07T09:51:11.458Z,16.40
2023-08-07T09:53:38.564Z,16.67
2023-08-07T09:56:05.613Z,16.87
2023-08-07T09:58:32.428Z,17.08
2023-08-07T10:01:10.748Z,17.29
2023-08-07T10:03:38.040Z,17.35
2023-08-07T10:06:05.910Z,17.23
2023-08-07T10:08:33.410Z,17.10
2023-08-07T10:11:01.037Z,16.93
2023-08-07T10:13:39.054Z,16.79
2023-08-07T10:16:07.749Z,16.61
2023-08-07T10:18:36.412Z,16.56
2023-08-07T10:21:06.017Z,16.45
2023-08-07T10:23:36.369Z,16.42
2023-08-07T10:26:07.252Z,16.49
2023-08-07T10:28:38.860Z,16.69
2023-08-07T10:31:07.788Z,16.95
2023-08-07T10:33:35.432Z,17.20
2023-08-07T10:36:10.050Z,17.32
2023-08-07T10:38:37.140Z,17.26
2023-08-07T10:41:08.683Z,17.10
2023-08-07T10:43:40.885Z,17.07
2023-08-07T10:46:11.195Z,17.09
2023-08-07T10:48:45.217Z,17.14
2023-08-07T10:51:16.293Z,17.19
2023-08-07T10:53:47.838Z,17.32
2023-08-07T10:56:36.989Z,17.40
2023-08-07T10:59:11.299Z,17.35
2023-08-07T11:01:44.749Z,17.31
2023-08-07T11:04:15.935Z,17.23
2023-08-07T11:06:47.830Z,17.15
2023-08-07T11:09:14.751Z,16.97
2023-08-07T11:11:42.941Z,16.86
2023-08-07T11:14:15.015Z,16.79
2023-08-07T11:16:42.545Z,16.74
2023-08-07T11:19:09.744Z,16.65
2023-08-07T11:21:38.945Z,16.54
2023-08-07T11:24:05.847Z,16.39
2023-08-07T11:26:32.565Z,16.32
2023-08-07T11:28:59.502Z,16.21
2023-08-07T11:31:26.708Z,16.10
2023-08-07T11:33:55.797Z,16.21
2023-08-07T11:36:23.653Z,16.52
2023-08-07T11:38:50.722Z,16.85
2023-08-07T11:41:19.176Z,17.06
2023-08-07T11:43:46.595Z,17.21
2023-08-07T11:46:16.556Z,17.26
2023-08-07T11:48:45.163Z,17.25
2023-08-07T11:51:12.020Z,17.23
2023-08-07T11:53:43.050Z,17.16
2023-08-07T11:56:17.533Z,17.15
2023-08-07T11:58:49.127Z,17.18
2023-08-07T12:01:24.418Z,17.27
2023-08-07T12:04:09.496Z,17.47
2023-08-07T12:06:37.515Z,17.76
2023-08-07T12:09:04.563Z,18.04
2023-08-07T12:11:31.702Z,18.30
2023-08-07T12:14:01.661Z,18.51
2023-08-07T12:16:34.192Z,18.83
2023-08-07T12:19:00.765Z,19.07
2023-08-07T12:21:27.457Z,19.36
2023-08-07T12:23:57.580Z,19.22
2023-08-07T12:26:24.212Z,18.85
2023-08-07T12:28:51.053Z,18.61
2023-08-07T12:31:18.863Z,18.60
2023-08-07T12:33:45.836Z,18.72
2023-08-07T12:38:44.244Z,19.02
2023-08-07T12:41:44.902Z,19.28
2023-08-07T12:43:57.448Z,19.33
2023-08-07T12:48:53.711Z,18.91
2023-08-07T12:51:22.224Z,18.85
2023-08-07T12:53:48.980Z,18.85
2023-08-07T12:56:15.709Z,18.92
2023-08-07T12:58:42.939Z,19.01
2023-08-07T13:01:10.932Z,19.14
2023-08-07T13:03:37.865Z,19.45
2023-08-07T13:06:07.661Z,19.69
2023-08-07T13:08:36.003Z,20.00
2023-08-07T13:11:03.007Z,20.24
2023-08-07T13:13:29.604Z,20.34
2023-08-07T13:15:56.209Z,20.40
2023-08-07T13:18:23.136Z,20.60
2023-08-07T13:20:50.058Z,20.79
2023-08-07T13:23:16.624Z,20.88
2023-08-07T13:25:43.265Z,20.76
2023-08-07T13:28:10.168Z,20.39
2023-08-07T13:30:37.882Z,19.97
2023-08-07T13:33:05.224Z,19.36
2023-08-07T13:35:34.201Z,19.06
2023-08-07T13:38:01.394Z,18.81
2023-08-07T13:40:28.228Z,18.88
2023-08-07T13:42:55.255Z,19.24
2023-08-07T13:45:21.971Z,19.63
2023-08-07T13:47:49.228Z,20.16
2023-08-07T13:50:16.394Z,20.40
2023-08-07T13:52:43.042Z,20.48
2023-08-07T13:55:10.446Z,20.64
2023-08-07T13:57:37.671Z,20.70
2023-08-07T14:00:05.020Z,20.77
2023-08-07T14:02:32.858Z,21.04
2023-08-07T14:04:59.811Z,21.22
2023-08-07T14:07:26.490Z,21.18
2023-08-07T14:09:53.145Z,20.74
2023-08-07T14:12:19.880Z,20.34
2023-08-07T14:14:46.507Z,20.30
2023-08-07T14:17:13.405Z,20.39
2023-08-07T14:19:40.319Z,20.43
2023-08-07T14:22:07.079Z,20.43
2023-08-07T14:24:33.890Z,20.29
2023-08-07T14:27:00.718Z,20.12
2023-08-07T14:29:27.518Z,19.99
2023-08-07T14:31:54.515Z,19.87
2023-08-07T14:34:21.225Z,19.97
2023-08-07T14:36:48.091Z,20.26
2023-08-07T14:39:14.970Z,20.61
2023-08-07T14:41:41.637Z,21.12
2023-08-07T14:44:08.448Z,21.60
2023-08-07T14:46:35.877Z,21.52
2023-08-07T14:49:02.795Z,21.17
2023-08-07T14:51:29.470Z,20.79
2023-08-07T14:53:55.960Z,20.59
2023-08-07T14:56:23.092Z,20.74
2023-08-07T14:58:49.909Z,21.30
2023-08-07T15:01:16.634Z,21.87
2023-08-07T15:03:44.178Z,22.55
2023-08-07T15:06:11.326Z,23.24
2023-08-07T15:08:37.938Z,23.19
2023-08-07T15:11:04.741Z,22.39
2023-08-07T15:13:32.151Z,21.72
2023-08-07T15:15:58.927Z,21.06
2023-08-07T15:18:25.904Z,20.45
2023-08-07T15:20:52.760Z,20.10
2023-08-07T15:23:20.976Z,19.97
2023-08-07T15:25:47.641Z,20.07
2023-08-07T15:28:14.332Z,19.76
2023-08-07T15:30:47.988Z,19.50
2023-08-07T15:33:14.887Z,19.17
2023-08-07T15:35:41.618Z,18.89
2023-08-07T15:38:08.540Z,18.78
2023-08-07T15:40:35.299Z,18.73
2023-08-07T15:43:01.916Z,18.81
2023-08-07T15:45:28.370Z,18.84
2023-08-07T15:47:55.146Z,18.78
2023-08-07T15:50:21.978Z,18.56
2023-08-07T15:52:48.559Z,18.38
2023-08-07T15:55:15.216Z,18.13
2023-08-07T15:57:41.917Z,17.94
2023-08-07T16:00:10.892Z,17.73
2023-08-07T16:02:37.749Z,17.62
2023-08-07T16:05:04.912Z,17.68
2023-08-07T16:07:31.652Z,17.74
2023-08-07T16:09:58.312Z,18.07
2023-08-07T16:12:24.954Z,19.77
2023-08-07T16:14:51.516Z,21.37
2023-08-07T16:17:18.065Z,22.79
2023-08-07T16:19:45.022Z,24.09
2023-08-07T16:22:11.670Z,25.04
2023-08-07T16:24:38.474Z,25.65
2023-08-07T16:27:07.493Z,25.69
2023-08-07T16:29:34.145Z,25.13
2023-08-07T16:32:05.695Z,24.47
2023-08-07T16:34:32.836Z,23.42
2023-08-07T16:36:59.623Z,22.28
2023-08-07T16:39:26.755Z,21.26
2023-08-07T16:41:54.057Z,20.35
2023-08-07T16:44:20.600Z,19.51
2023-08-07T16:46:47.057Z,18.62
2023-08-07T16:49:13.705Z,17.96
2023-08-07T16:51:40.168Z,17.46
2023-08-07T16:54:06.979Z,17.04
2023-08-07T16:56:33.729Z,16.57
2023-08-07T16:59:00.782Z,16.08
2023-08-07T17:01:27.622Z,15.68
2023-08-07T17:03:54.182Z,15.38
2023-08-07T17:06:21.011Z,14.90
2023-08-07T17:08:50.696Z,14.36
2023-08-07T17:11:17.621Z,13.97
2023-08-07T17:13:44.463Z,13.73
2023-08-07T17:16:11.208Z,13.61
2023-08-07T17:18:38.009Z,13.70
2023-08-07T17:21:04.571Z,14.74
2023-08-07T17:23:31.174Z,16.17
2023-08-07T17:25:58.922Z,17.26
2023-08-07T17:28:25.668Z,17.99
2023-08-07T17:30:52.516Z,18.77
2023-08-07T17:33:19.438Z,19.27
2023-08-07T17:35:46.355Z,19.14
2023-08-07T17:38:14.535Z,18.35
2023-08-07T17:40:41.425Z,17.92
2023-08-07T17:43:08.075Z,18.20
2023-08-07T17:45:35.741Z,18.64
2023-08-07T17:48:02.697Z,19.32
2023-08-07T17:50:30.027Z,19.92
2023-08-07T17:52:56.879Z,20.07
2023-08-07T17:55:24.698Z,19.43
2023-08-07T17:57:52.450Z,18.76
2023-08-07T18:00:19.825Z,18.08
2023-08-07T18:02:46.748Z,17.50
2023-08-07T18:05:14.015Z,17.48
2023-08-07T18:07:40.756Z,17.88
2023-08-07T18:10:08.948Z,17.97
2023-08-07T18:12:35.528Z,18.29
2023-08-07T18:15:02.446Z,18.65
2023-08-07T18:17:31.402Z,19.03
2023-08-07T18:19:57.964Z,19.26
2023-08-07T18:22:25.074Z,19.47
2023-08-07T18:24:51.943Z,19.30
2023-08-07T18:27:19.173Z,19.10
2023-08-07T18:29:46.059Z,18.81
2023-08-07T18:32:12.701Z,18.42
2023-08-07T18:34:39.420Z,18.22
2023-08-07T18:37:06.207Z,18.04
2023-08-07T18:39:33.237Z,17.65
2023-08-07T18:42:00.441Z,17.10
2023-08-07T18:44:26.960Z,16.64
2023-08-07T18:46:53.872Z,16.23
2023-08-07T18:49:21.982Z,15.92
2023-08-07T18:51:48.906Z,15.71
2023-08-07T18:54:15.687Z,15.49
2023-08-07T18:56:42.576Z,15.30
2023-08-07T18:59:09.169Z,15.13
2023-08-07T19:01:35.917Z,15.01
2023-08-07T19:04:02.544Z,14.89
2023-08-07T19:06:32.275Z,14.79
2023-08-07T19:08:59.497Z,14.68
2023-08-07T19:11:28.287Z,14.61
2023-08-07T19:13:56.778Z,14.53
2023-08-07T19:16:23.505Z,14.46
2023-08-07T19:18:50.557Z,14.42
2023-08-07T19:21:17.213Z,14.41
2023-08-07T19:23:43.709Z,14.40
2023-08-07T19:26:10.497Z,14.37
2023-08-07T19:28:37.306Z,14.38
2023-08-07T19:31:06.687Z,14.39
2023-08-07T19:33:34.184Z,14.38
2023-08-07T19:36:00.951Z,14.37
2023-08-07T19:38:27.627Z,14.35
2023-08-07T19:40:54.901Z,14.32
2023-08-07T19:43:21.518Z,14.29
2023-08-07T19:45:48.484Z,14.26
2023-08-07T19:48:15.424Z,14.21
2023-08-07T19:50:42.076Z,14.17
2023-08-07T19:53:08.906Z,14.14
2023-08-07T19:55:35.468Z,14.10
2023-08-07T19:58:05.007Z,14.05
2023-08-07T20:00:31.794Z,14.01
2023-08-07T20:02:58.359Z,13.98
2023-08-07T20:05:25.114Z,13.96
2023-08-07T20:07:51.922Z,13.93
2023-08-07T20:10:24.207Z,13.90
2023-08-07T20:12:51.856Z,13.86
2023-08-07T20:15:19.367Z,13.83
2023-08-07T20:17:46.852Z,13.75
2023-08-07T20:20:14.334Z,13.71
2023-08-07T20:22:44.184Z,13.69
2023-08-07T20:25:11.213Z,13.67
2023-08-07T20:27:38.106Z,13.67
2023-08-07T20:30:05.844Z,13.67
2023-08-07T20:32:32.775Z,13.63
2023-08-07T20:34:59.446Z,13.67
2023-08-07T20:37:26.840Z,13.66
2023-08-07T20:39:53.923Z,13.66
2023-08-07T20:42:20.607Z,13.63
2023-08-07T20:44:47.352Z,13.64
2023-08-07T20:47:14.162Z,13.63
2023-08-07T20:49:40.705Z,13.60
2023-08-07T20:52:07.485Z,13.61
2023-08-07T20:54:34.039Z,13.64
2023-08-07T20:57:01.715Z,13.67
2023-08-07T20:59:28.576Z,13.72
2023-08-07T21:01:55.412Z,13.78
2023-08-07T21:04:24.455Z,13.81
2023-08-07T21:06:53.472Z,13.88
2023-08-07T21:09:20.541Z,13.92
2023-08-07T21:11:47.299Z,13.94
2023-08-07T21:14:13.913Z,13.98
2023-08-07T21:16:44.761Z,14.00
2023-08-07T21:19:12.713Z,14.01
2023-08-07T21:21:39.587Z,14.03
2023-08-07T21:24:09.888Z,14.05
2023-08-07T21:26:39.791Z,14.03
2023-08-07T21:29:06.523Z,14.03
2023-08-07T21:31:33.500Z,13.98
2023-08-07T21:34:00.167Z,13.92
2023-08-07T21:36:26.793Z,13.87
2023-08-07T21:38:53.928Z,13.83
2023-08-07T21:41:20.506Z,13.78
2023-08-07T21:43:47.378Z,13.73
2023-08-07T21:46:13.994Z,13.68
2023-08-07T21:48:40.773Z,13.65
2023-08-07T21:51:07.300Z,13.61
2023-08-07T21:53:34.033Z,13.55
2023-08-07T21:56:00.622Z,13.50
2023-08-07T21:58:27.102Z,13.44
2023-08-07T22:00:53.821Z,13.39
2023-08-07T22:03:20.803Z,13.35
2023-08-07T22:05:48.413Z,13.31
2023-08-07T22:08:15.043Z,13.27
2023-08-07T22:10:41.638Z,13.23
2023-08-07T22:13:08.135Z,13.21
2023-08-07T22:15:34.905Z,13.17
2023-08-07T22:18:01.540Z,13.14
2023-08-07T22:20:28.379Z,13.13
2023-08-07T22:22:54.961Z,13.11
2023-08-07T22:25:21.673Z,13.08
2023-08-07T22:27:48.929Z,13.01
2023-08-07T22:30:15.919Z,13.04
2023-08-07T22:32:43.624Z,13.03
2023-08-07T22:35:10.556Z,13.02
2023-08-07T22:37:37.662Z,13.01
2023-08-07T22:40:04.885Z,13.00
2023-08-07T22:42:31.452Z,12.99
2023-08-07T22:44:58.335Z,12.98
2023-08-07T22:47:25.135Z,12.98
2023-08-07T22:49:51.685Z,12.96
2023-08-07T22:52:18.593Z,12.97
2023-08-07T22:54:45.387Z,12.96
2023-08-07T22:57:12.143Z,12.93
2023-08-07T22:59:38.873Z,12.90
2023-08-07T23:02:05.763Z,12.89
2023-08-07T23:04:32.582Z,12.86
2023-08-07T23:06:59.199Z,12.84
2023-08-07T23:09:25.992Z,12.84
2023-08-07T23:11:52.580Z,12.82
2023-08-07T23:14:19.345Z,12.80
2023-08-07T23:16:46.072Z,12.78
2023-08-07T23:19:13.111Z,12.76
2023-08-07T23:21:39.553Z,12.74
2023-08-07T23:24:07.079Z,12.71
2023-08-07T23:26:34.320Z,12.70
2023-08-07T23:29:01.454Z,12.72
2023-08-07T23:31:30.913Z,12.73
2023-08-07T23:33:57.758Z,12.76
2023-08-07T23:36:24.647Z,12.78
2023-08-07T23:38:51.661Z,12.82
2023-08-07T23:41:18.586Z,12.84
2023-08-07T23:43:45.375Z,12.85
2023-08-07T23:46:12.594Z,12.86
2023-08-07T23:48:39.997Z,12.85
2023-08-07T23:51:06.678Z,12.87
2023-08-07T23:53:33.521Z,12.86
2023-08-07T23:56:00.316Z,12.84
2023-08-07T23:58:27.236Z,12.83
